Terminal Aerodrome Forecast
Issued by NWS Upton, NY

Home | Current Version | Previous Version | Text Only | Print | Product List | Glossary On
Versions: 1 2 3 4 5 6 7 8 9 10 11 12 13 14 15 16 17 18 19 20 21 22 23 24 25 26 27
000
FTUS41 KOKX 060232 AAA
TAFEWR
TAF AMD
KEWR 060232Z 0603/0706 21005KT P6SM BKN250
      TEMPO 0608/0611 6SM BR
     FM061300 18006KT P6SM BKN250
     FM061800 15010KT P6SM SCT060 BKN250
     FM070100 16007KT P6SM SCT120 BKN250
     FM070400 15005KT 6SM BR SCT010=

USA.gov is the U.S. government's official web portal to all federal, state and local government web resources and services.